createdAt,value
2022-10-06T00:01:49.290Z,7.23
2022-10-06T00:05:46.932Z,7.37
2022-10-06T00:09:43.938Z,8.00
2022-10-06T00:13:41.852Z,8.83
2022-10-06T00:17:39.303Z,8.60
2022-10-06T00:21:36.385Z,7.87
2022-10-06T00:25:33.429Z,7.90
2022-10-06T00:29:30.393Z,8.50
2022-10-06T00:33:27.372Z,10.20
2022-10-06T00:37:28.638Z,9.13
2022-10-06T00:41:25.629Z,6.53
2022-10-06T00:45:46.514Z,6.97
2022-10-06T00:49:45.449Z,6.50
2022-10-06T00:53:42.904Z,6.57
2022-10-06T00:57:41.637Z,5.70
2022-10-06T01:01:44.547Z,5.50
2022-10-06T01:05:48.588Z,5.90
2022-10-06T01:09:46.514Z,5.70
2022-10-06T01:13:46.476Z,5.93
2022-10-06T01:18:00.138Z,6.03
2022-10-06T01:22:04.630Z,6.37
2022-10-06T01:26:10.143Z,6.20
2022-10-06T01:30:19.680Z,6.70
2022-10-06T01:34:16.960Z,6.23
2022-10-06T01:38:14.136Z,6.40
2022-10-06T01:42:11.840Z,5.97
2022-10-06T01:46:08.958Z,6.10
2022-10-06T01:50:07.257Z,5.67
2022-10-06T01:54:05.111Z,5.60
2022-10-06T01:58:02.281Z,5.33
2022-10-06T02:01:59.819Z,6.17
2022-10-06T02:05:57.549Z,6.53
2022-10-06T02:09:54.803Z,6.27
2022-10-06T02:13:52.010Z,6.87
2022-10-06T02:17:49.184Z,5.97
2022-10-06T02:21:46.241Z,5.80
2022-10-06T02:25:43.283Z,5.97
2022-10-06T02:29:40.421Z,5.40
2022-10-06T02:33:39.979Z,5.37
2022-10-06T02:37:41.498Z,5.30
2022-10-06T02:41:40.558Z,5.73
2022-10-06T02:45:38.407Z,6.20
2022-10-06T02:49:35.597Z,6.70
2022-10-06T02:53:32.703Z,6.73
2022-10-06T02:57:29.840Z,6.17
2022-10-06T03:01:29.756Z,5.87
2022-10-06T03:05:36.669Z,5.43
2022-10-06T03:09:34.097Z,6.33
2022-10-06T03:13:31.764Z,6.90
2022-10-06T03:17:29.257Z,5.77
2022-10-06T03:21:31.087Z,5.60
2022-10-06T03:25:28.184Z,6.13
2022-10-06T03:29:25.183Z,5.97
2022-10-06T03:33:25.917Z,6.37
2022-10-06T03:37:23.094Z,5.80
2022-10-06T03:41:33.652Z,5.90
2022-10-06T03:45:31.221Z,5.97
2022-10-06T03:49:28.573Z,6.20
2022-10-06T03:53:29.571Z,5.77
2022-10-06T03:57:26.698Z,6.40
2022-10-06T04:01:31.842Z,6.00
2022-10-06T04:05:31.578Z,6.00
2022-10-06T04:09:28.813Z,6.07
2022-10-06T04:13:27.062Z,5.80
2022-10-06T04:17:24.206Z,5.73
2022-10-06T04:21:22.331Z,6.73
2022-10-06T04:25:19.744Z,6.93
2022-10-06T04:29:18.033Z,7.20
2022-10-06T04:33:18.259Z,7.10
2022-10-06T04:37:15.270Z,6.93
2022-10-06T04:41:17.694Z,7.40
2022-10-06T04:45:14.963Z,7.63
2022-10-06T04:49:19.554Z,7.07
2022-10-06T04:53:18.978Z,6.70
2022-10-06T04:57:16.256Z,7.23
2022-10-06T05:01:35.821Z,8.03
2022-10-06T05:05:36.042Z,8.93
2022-10-06T05:09:33.085Z,9.17
2022-10-06T05:13:32.109Z,11.40
2022-10-06T05:17:31.139Z,11.40
2022-10-06T05:21:32.409Z,9.17
2022-10-06T05:25:30.703Z,9.70
2022-10-06T05:29:27.858Z,9.30
2022-10-06T05:33:29.246Z,8.63
2022-10-06T05:37:26.450Z,8.97
2022-10-06T05:41:32.613Z,8.37
2022-10-06T05:45:33.461Z,8.10
2022-10-06T05:49:30.535Z,7.50
2022-10-06T05:53:34.183Z,7.77
2022-10-06T05:57:31.644Z,8.07
2022-10-06T06:01:34.871Z,7.87
2022-10-06T06:05:41.060Z,7.33
2022-10-06T06:09:38.668Z,9.33
2022-10-06T06:13:36.651Z,9.20
2022-10-06T06:17:38.428Z,10.20
2022-10-06T06:21:36.509Z,9.20
2022-10-06T06:25:34.501Z,10.30
2022-10-06T06:29:31.791Z,10.77
2022-10-06T06:33:32.267Z,13.37
2022-10-06T06:37:33.592Z,12.60
2022-10-06T06:41:37.954Z,13.60
2022-10-06T06:45:40.643Z,16.23
2022-10-06T06:49:53.995Z,15.00
2022-10-06T06:53:53.349Z,15.27
2022-10-06T06:57:50.789Z,13.70
2022-10-06T07:01:48.935Z,10.67
2022-10-06T07:05:51.837Z,9.77
2022-10-06T07:09:49.368Z,10.30
2022-10-06T07:13:53.992Z,10.60
2022-10-06T07:18:09.907Z,10.70
2022-10-06T07:22:26.040Z,10.33
2022-10-06T07:26:24.485Z,10.60
2022-10-06T07:30:29.094Z,11.20
2022-10-06T07:34:31.087Z,10.30
2022-10-06T07:38:29.863Z,10.80
2022-10-06T07:42:28.328Z,10.90
2022-10-06T07:46:25.431Z,11.90
2022-10-06T07:50:51.879Z,9.15
2022-10-06T07:55:08.474Z,6.63
2022-10-06T07:59:29.487Z,5.82
2022-10-06T08:03:26.528Z,4.68
2022-10-06T08:07:23.730Z,5.10
2022-10-06T08:11:22.888Z,4.22
2022-10-06T08:15:19.978Z,4.63
2022-10-06T08:19:19.686Z,4.32
2022-10-06T08:23:16.745Z,4.55
2022-10-06T08:27:13.741Z,4.53
2022-10-06T08:31:12.254Z,4.70
2022-10-06T08:35:11.171Z,4.40
2022-10-06T08:39:08.353Z,4.72
2022-10-06T08:43:19.592Z,4.55
2022-10-06T08:47:23.039Z,4.00
2022-10-06T08:51:46.025Z,4.30
2022-10-06T08:55:53.295Z,3.97
2022-10-06T08:59:53.763Z,4.63
2022-10-06T09:03:56.585Z,3.88
2022-10-06T09:08:45.333Z,2.35
2022-10-06T09:12:52.131Z,2.50
2022-10-06T09:17:00.754Z,2.83
2022-10-06T09:21:02.395Z,2.85
2022-10-06T09:25:24.407Z,1.80
2022-10-06T09:29:21.852Z,1.70
2022-10-06T09:33:25.276Z,1.50
2022-10-06T09:37:23.690Z,1.90
2022-10-06T09:41:54.421Z,1.40
2022-10-06T09:45:54.817Z,1.48
2022-10-06T09:50:12.160Z,1.30
2022-10-06T09:54:14.956Z,1.10
2022-10-06T09:58:23.958Z,1.20
2022-10-06T10:02:39.695Z,1.40
2022-10-06T10:06:37.004Z,1.80
2022-10-06T10:10:36.053Z,1.23
2022-10-06T10:14:38.698Z,1.23
2022-10-06T10:18:36.052Z,1.50
2022-10-06T10:22:39.990Z,1.27
2022-10-06T10:27:10.051Z,1.20
2022-10-06T10:31:12.806Z,1.10
2022-10-06T10:35:25.593Z,1.20
2022-10-06T10:39:34.719Z,1.27
2022-10-06T10:44:03.243Z,1.20
2022-10-06T10:48:11.753Z,1.27
2022-10-06T10:52:28.012Z,1.38
2022-10-06T10:56:27.449Z,1.30
2022-10-06T11:00:30.923Z,1.05
2022-10-06T11:04:28.455Z,1.30
2022-10-06T11:08:50.914Z,1.30
2022-10-06T11:13:12.123Z,1.73
2022-10-06T11:17:44.712Z,1.58
2022-10-06T11:21:58.528Z,1.40
2022-10-06T11:26:40.210Z,1.38
2022-10-06T11:31:07.876Z,1.10
2022-10-06T11:35:24.305Z,1.40
2022-10-06T11:39:32.100Z,1.38
2022-10-06T11:43:46.390Z,1.33
2022-10-06T11:48:07.707Z,2.42
2022-10-06T11:52:08.615Z,1.45
2022-10-06T11:56:18.115Z,1.08
2022-10-06T12:00:15.135Z,1.00
2022-10-06T12:04:13.745Z,1.13
2022-10-06T12:08:16.794Z,1.20
2022-10-06T12:12:19.584Z,1.27
2022-10-06T12:21:12.626Z,1.30
2022-10-06T12:26:02.122Z,1.27
2022-10-06T12:30:18.750Z,1.45
2022-10-06T12:34:51.888Z,1.55
2022-10-06T12:39:06.811Z,0.90
2022-10-06T12:43:19.392Z,1.20
2022-10-06T12:47:29.456Z,1.40
2022-10-06T12:51:41.946Z,1.35
2022-10-06T12:55:52.202Z,1.10
2022-10-06T12:59:50.603Z,1.27
2022-10-06T13:03:53.573Z,0.82
2022-10-06T13:08:03.587Z,1.20
2022-10-06T13:12:29.572Z,1.00
2022-10-06T13:16:32.819Z,1.02
2022-10-06T13:20:55.081Z,0.90
2022-10-06T13:25:02.787Z,0.95
2022-10-06T13:29:01.182Z,0.88
2022-10-06T13:32:59.301Z,1.30
2022-10-06T13:36:59.168Z,0.90
2022-10-06T13:41:37.132Z,1.10
2022-10-06T13:45:34.154Z,0.73
2022-10-06T13:49:45.848Z,0.95
2022-10-06T13:53:47.811Z,0.80
2022-10-06T13:58:05.225Z,1.33
2022-10-06T14:02:32.457Z,0.90
2022-10-06T14:06:29.535Z,1.00
2022-10-06T14:10:40.125Z,0.90
2022-10-06T14:14:38.703Z,0.80
2022-10-06T14:18:46.791Z,1.10
2022-10-06T14:22:43.935Z,1.00
2022-10-06T14:26:40.888Z,0.88
2022-10-06T14:30:37.951Z,0.90
2022-10-06T14:34:34.942Z,0.90
2022-10-06T14:38:32.053Z,1.17
2022-10-06T14:42:28.996Z,0.95
2022-10-06T14:46:26.245Z,0.93
2022-10-06T14:50:23.705Z,0.95
2022-10-06T14:54:21.544Z,1.17
2022-10-06T14:58:18.480Z,1.05
2022-10-06T15:02:15.647Z,0.90
2022-10-06T15:06:32.459Z,1.50
2022-10-06T15:10:30.358Z,1.15
2022-10-06T15:14:28.535Z,1.17
2022-10-06T15:18:26.234Z,1.40
2022-10-06T15:22:23.244Z,1.20
2022-10-06T15:26:38.875Z,1.13
2022-10-06T15:30:43.126Z,0.90
2022-10-06T15:34:40.086Z,1.10
2022-10-06T15:38:37.627Z,1.02
2022-10-06T15:42:34.756Z,1.33
2022-10-06T15:46:41.957Z,1.08
2022-10-06T15:50:39.657Z,1.50
2022-10-06T15:54:41.755Z,1.30
2022-10-06T15:58:39.761Z,1.30
2022-10-06T16:02:37.007Z,1.45
2022-10-06T16:06:40.488Z,1.58
2022-10-06T16:10:37.478Z,1.77
2022-10-06T16:14:35.384Z,2.15
2022-10-06T16:18:32.389Z,3.00
2022-10-06T16:22:29.540Z,2.30
2022-10-06T16:26:28.430Z,1.98
2022-10-06T16:30:25.416Z,2.00
2022-10-06T16:34:23.028Z,1.90
2022-10-06T16:38:26.328Z,3.45
2022-10-06T16:42:24.300Z,8.98
2022-10-06T16:46:28.972Z,4.05
2022-10-06T16:50:26.092Z,2.60
2022-10-06T16:54:23.214Z,2.20
2022-10-06T16:58:20.276Z,4.40
2022-10-06T17:02:17.389Z,6.22
2022-10-06T17:06:18.153Z,9.38
2022-10-06T17:10:20.458Z,8.60
2022-10-06T17:14:19.956Z,6.77
2022-10-06T17:18:16.994Z,6.35
2022-10-06T17:22:14.112Z,5.87
2022-10-06T17:26:18.919Z,6.73
2022-10-06T17:30:16.923Z,6.40
2022-10-06T17:34:21.917Z,8.17
2022-10-06T17:38:20.644Z,9.47
2022-10-06T17:42:17.967Z,11.03
2022-10-06T17:46:20.227Z,8.87
2022-10-06T17:50:17.204Z,5.60
2022-10-06T17:54:18.213Z,6.37
2022-10-06T17:58:18.544Z,5.67
2022-10-06T18:02:17.122Z,5.40
2022-10-06T18:06:17.537Z,8.77
2022-10-06T18:10:33.419Z,6.03
2022-10-06T18:14:33.736Z,6.60
2022-10-06T18:18:32.193Z,7.63
2022-10-06T18:22:29.170Z,7.30
2022-10-06T18:26:26.111Z,12.97
2022-10-06T18:30:28.338Z,23.17
2022-10-06T18:38:45.844Z,10.90
2022-10-06T18:42:42.843Z,6.10
2022-10-06T18:46:58.550Z,7.93
2022-10-06T18:51:02.898Z,9.13
2022-10-06T18:54:59.903Z,8.40
2022-10-06T18:58:59.492Z,7.87
2022-10-06T19:02:56.950Z,12.17
2022-10-06T19:06:55.982Z,22.27
2022-10-06T19:11:12.131Z,10.40
2022-10-06T19:15:10.196Z,8.67
2022-10-06T19:19:11.735Z,7.70
2022-10-06T19:23:08.797Z,7.27
2022-10-06T19:27:16.047Z,6.13
2022-10-06T19:31:18.768Z,11.77
2022-10-06T19:35:16.305Z,8.13
2022-10-06T19:39:13.358Z,6.10
2022-10-06T19:43:10.940Z,5.67
2022-10-06T19:47:12.507Z,7.20
2022-10-06T19:51:17.755Z,7.57
2022-10-06T19:55:14.776Z,7.67
2022-10-06T19:59:21.715Z,8.87
2022-10-06T20:03:20.283Z,10.37
2022-10-06T20:07:21.569Z,10.97
2022-10-06T20:11:22.325Z,9.93
2022-10-06T20:15:19.851Z,12.07
2022-10-06T20:19:21.106Z,10.37
2022-10-06T20:23:18.975Z,9.90
2022-10-06T20:27:16.053Z,9.43
2022-10-06T20:31:24.767Z,9.13
2022-10-06T20:35:21.867Z,8.97
2022-10-06T20:39:40.561Z,8.40
2022-10-06T20:43:41.097Z,8.23
2022-10-06T20:47:38.271Z,8.60
2022-10-06T20:51:41.532Z,8.47
2022-10-06T20:55:38.541Z,8.70
2022-10-06T20:59:35.753Z,8.40
2022-10-06T21:03:35.176Z,9.40
2022-10-06T21:07:32.453Z,8.67
2022-10-06T21:12:00.086Z,7.83
2022-10-06T21:16:05.023Z,7.30
2022-10-06T21:20:05.999Z,5.33
2022-10-06T21:24:06.557Z,5.20
2022-10-06T21:28:04.892Z,4.90
2022-10-06T21:32:02.133Z,5.37
2022-10-06T21:36:04.968Z,5.60
2022-10-06T21:40:02.689Z,4.67
2022-10-06T21:44:06.941Z,4.93
2022-10-06T21:48:04.196Z,4.37
2022-10-06T21:52:05.026Z,4.00
2022-10-06T21:56:02.154Z,7.80
2022-10-06T21:59:59.366Z,4.70
2022-10-06T22:03:58.452Z,4.47
2022-10-06T22:07:55.617Z,4.10
2022-10-06T22:11:52.770Z,4.17
2022-10-06T22:15:49.928Z,3.53
2022-10-06T22:19:47.104Z,3.70
2022-10-06T22:23:47.342Z,3.73
2022-10-06T22:27:44.709Z,3.30
2022-10-06T22:31:45.048Z,3.73
2022-10-06T22:35:51.113Z,3.33
2022-10-06T22:39:48.276Z,3.10
2022-10-06T22:43:45.701Z,4.70
2022-10-06T22:47:43.004Z,4.17
2022-10-06T22:51:40.348Z,3.33
2022-10-06T22:55:37.477Z,3.03
2022-10-06T22:59:34.682Z,3.90
2022-10-06T23:03:31.848Z,3.30
2022-10-06T23:07:29.021Z,3.50
2022-10-06T23:11:26.298Z,3.40
2022-10-06T23:15:24.092Z,3.67
2022-10-06T23:19:21.197Z,3.80
2022-10-06T23:23:19.365Z,5.47
2022-10-06T23:27:16.495Z,4.80
2022-10-06T23:31:13.732Z,4.77
2022-10-06T23:35:12.195Z,3.83
2022-10-06T23:39:10.228Z,4.47
2022-10-06T23:43:07.362Z,4.53
2022-10-06T23:47:05.221Z,3.70
2022-10-06T23:51:09.395Z,3.40
2022-10-06T23:55:07.546Z,3.60
2022-10-06T23:59:05.061Z,3.20
